Andahuaylas, Peru
Current Conditions -  °F | °C
As of 1:00 PM on Friday 31 Oct 2014 (Local Time) from SPHO Reporting Station
Broken Clouds Broken Clouds  
Wind Chill: 79°   Ceiling: 17000
Heat Index: 79°   Visibility: 6mi
Dew Point: 48°   Wind: 13mph
Humidity: 34%   Direction: 30°NNE
Pressure: 30.15"   Gusts: NA
Location:  13.65°S, 73.4°W
Report Text: SPHO 311800Z 03011KT 360V090 9999 FEW046 BKN170 26/09 Q1021 RMKPP000
Loading
Personal Weather Stations






























Interactive Weather Map
Tropical Storm Tracking
New forecast layout! Learn more

10-Day Weather Forecast

Advertisements
Track Severe Weather on mobile